sensor_id;sensor_type;location;lat;lon;timestamp;P1;durP1;ratioP1;P2;durP2;ratioP2
22814;SDS011;11574;51.058;13.712;2022-12-24T00:03:20;2.63;;;0.80;;
22814;SDS011;11574;51.058;13.712;2022-12-24T00:08:22;7.63;;;0.97;;
22814;SDS011;11574;51.058;13.712;2022-12-24T00:13:24;5.83;;;0.93;;
22814;SDS011;11574;51.058;13.712;2022-12-24T00:18:28;3.83;;;0.80;;
22814;SDS011;11574;51.058;13.712;2022-12-24T00:23:30;2.77;;;1.03;;
22814;SDS011;11574;51.058;13.712;2022-12-24T00:28:32;1.57;;;0.70;;
22814;SDS011;11574;51.058;13.712;2022-12-24T00:33:35;2.30;;;0.70;;
22814;SDS011;11574;51.058;13.712;2022-12-24T00:38:38;4.77;;;1.10;;
22814;SDS011;11574;51.058;13.712;2022-12-24T00:43:40;2.23;;;0.90;;
22814;SDS011;11574;51.058;13.712;2022-12-24T00:48:43;3.33;;;1.07;;
22814;SDS011;11574;51.058;13.712;2022-12-24T00:53:46;3.23;;;0.90;;
22814;SDS011;11574;51.058;13.712;2022-12-24T00:58:49;3.30;;;0.93;;
22814;SDS011;11574;51.058;13.712;2022-12-24T01:03:52;3.63;;;1.13;;
22814;SDS011;11574;51.058;13.712;2022-12-24T01:09:15;6.30;;;1.23;;
22814;SDS011;11574;51.058;13.712;2022-12-24T01:14:17;8.30;;;1.50;;
22814;SDS011;11574;51.058;13.712;2022-12-24T01:19:20;5.43;;;1.50;;
22814;SDS011;11574;51.058;13.712;2022-12-24T01:24:23;6.47;;;1.50;;
22814;SDS011;11574;51.058;13.712;2022-12-24T01:29:25;4.47;;;1.20;;
22814;SDS011;11574;51.058;13.712;2022-12-24T01:34:28;5.57;;;1.30;;
22814;SDS011;11574;51.058;13.712;2022-12-24T01:39:31;7.30;;;1.47;;
22814;SDS011;11574;51.058;13.712;2022-12-24T01:44:34;9.70;;;1.70;;
22814;SDS011;11574;51.058;13.712;2022-12-24T01:49:38;10.70;;;1.63;;
22814;SDS011;11574;51.058;13.712;2022-12-24T01:54:42;8.40;;;1.70;;
22814;SDS011;11574;51.058;13.712;2022-12-24T01:59:45;8.10;;;1.50;;
22814;SDS011;11574;51.058;13.712;2022-12-24T02:04:50;8.70;;;1.50;;
22814;SDS011;11574;51.058;13.712;2022-12-24T02:09:56;10.80;;;1.87;;
22814;SDS011;11574;51.058;13.712;2022-12-24T02:14:59;6.07;;;1.50;;
22814;SDS011;11574;51.058;13.712;2022-12-24T02:25:30;4.10;;;1.30;;
22814;SDS011;11574;51.058;13.712;2022-12-24T02:30:37;3.83;;;1.27;;
22814;SDS011;11574;51.058;13.712;2022-12-24T02:35:44;6.10;;;1.43;;
22814;SDS011;11574;51.058;13.712;2022-12-24T02:40:49;7.87;;;1.20;;
22814;SDS011;11574;51.058;13.712;2022-12-24T02:45:54;6.60;;;1.10;;
22814;SDS011;11574;51.058;13.712;2022-12-24T02:51:00;5.37;;;1.30;;
22814;SDS011;11574;51.058;13.712;2022-12-24T02:56:17;8.43;;;1.60;;
22814;SDS011;11574;51.058;13.712;2022-12-24T03:01:29;4.83;;;1.03;;
22814;SDS011;11574;51.058;13.712;2022-12-24T03:06:37;9.40;;;1.20;;
22814;SDS011;11574;51.058;13.712;2022-12-24T03:11:41;7.53;;;1.30;;
22814;SDS011;11574;51.058;13.712;2022-12-24T03:16:45;3.23;;;0.90;;
22814;SDS011;11574;51.058;13.712;2022-12-24T03:21:48;6.73;;;1.30;;
22814;SDS011;11574;51.058;13.712;2022-12-24T03:26:50;6.23;;;1.37;;
22814;SDS011;11574;51.058;13.712;2022-12-24T03:31:58;3.50;;;1.00;;
22814;SDS011;11574;51.058;13.712;2022-12-24T03:37:01;6.47;;;1.60;;
22814;SDS011;11574;51.058;13.712;2022-12-24T03:42:03;7.90;;;1.43;;
22814;SDS011;11574;51.058;13.712;2022-12-24T03:47:07;4.47;;;1.03;;
22814;SDS011;11574;51.058;13.712;2022-12-24T03:52:09;8.43;;;1.53;;
22814;SDS011;11574;51.058;13.712;2022-12-24T03:57:11;3.80;;;1.33;;
22814;SDS011;11574;51.058;13.712;2022-12-24T04:02:14;6.67;;;1.00;;
22814;SDS011;11574;51.058;13.712;2022-12-24T04:07:17;2.77;;;1.07;;
22814;SDS011;11574;51.058;13.712;2022-12-24T04:12:20;4.93;;;1.20;;
22814;SDS011;11574;51.058;13.712;2022-12-24T04:17:24;5.40;;;1.00;;
22814;SDS011;11574;51.058;13.712;2022-12-24T04:22:26;4.60;;;1.17;;
22814;SDS011;11574;51.058;13.712;2022-12-24T04:27:28;4.90;;;0.93;;
22814;SDS011;11574;51.058;13.712;2022-12-24T04:32:32;2.90;;;1.00;;
22814;SDS011;11574;51.058;13.712;2022-12-24T04:37:34;3.17;;;1.20;;
22814;SDS011;11574;51.058;13.712;2022-12-24T04:42:36;5.43;;;1.20;;
22814;SDS011;11574;51.058;13.712;2022-12-24T04:47:39;3.00;;;1.10;;
22814;SDS011;11574;51.058;13.712;2022-12-24T04:52:42;7.87;;;1.40;;
22814;SDS011;11574;51.058;13.712;2022-12-24T04:57:44;4.63;;;1.10;;
22814;SDS011;11574;51.058;13.712;2022-12-24T05:02:49;4.33;;;0.83;;
22814;SDS011;11574;51.058;13.712;2022-12-24T05:07:51;8.40;;;1.47;;
22814;SDS011;11574;51.058;13.712;2022-12-24T05:12:53;3.90;;;1.30;;
22814;SDS011;11574;51.058;13.712;2022-12-24T05:17:57;5.77;;;1.57;;
22814;SDS011;11574;51.058;13.712;2022-12-24T05:22:59;6.83;;;1.50;;
22814;SDS011;11574;51.058;13.712;2022-12-24T05:28:19;4.13;;;1.10;;
22814;SDS011;11574;51.058;13.712;2022-12-24T05:33:22;5.50;;;1.20;;
22814;SDS011;11574;51.058;13.712;2022-12-24T05:38:24;2.57;;;1.03;;
22814;SDS011;11574;51.058;13.712;2022-12-24T05:43:26;7.57;;;1.50;;
22814;SDS011;11574;51.058;13.712;2022-12-24T05:48:31;6.00;;;1.80;;
22814;SDS011;11574;51.058;13.712;2022-12-24T05:53:34;4.97;;;1.20;;
22814;SDS011;11574;51.058;13.712;2022-12-24T05:58:37;4.77;;;1.27;;
22814;SDS011;11574;51.058;13.712;2022-12-24T06:03:40;7.73;;;1.50;;
22814;SDS011;11574;51.058;13.712;2022-12-24T06:08:43;3.83;;;1.13;;
22814;SDS011;11574;51.058;13.712;2022-12-24T06:13:45;6.10;;;1.50;;
22814;SDS011;11574;51.058;13.712;2022-12-24T06:18:49;8.40;;;1.40;;
22814;SDS011;11574;51.058;13.712;2022-12-24T06:23:51;10.17;;;1.67;;
22814;SDS011;11574;51.058;13.712;2022-12-24T06:28:53;5.20;;;1.20;;
22814;SDS011;11574;51.058;13.712;2022-12-24T06:33:58;5.63;;;1.20;;
22814;SDS011;11574;51.058;13.712;2022-12-24T06:39:00;6.93;;;1.70;;
22814;SDS011;11574;51.058;13.712;2022-12-24T06:44:02;6.10;;;1.50;;
22814;SDS011;11574;51.058;13.712;2022-12-24T06:49:06;7.53;;;1.67;;
22814;SDS011;11574;51.058;13.712;2022-12-24T06:54:09;8.23;;;1.30;;
22814;SDS011;11574;51.058;13.712;2022-12-24T06:59:11;8.73;;;1.60;;
22814;SDS011;11574;51.058;13.712;2022-12-24T07:04:15;6.73;;;1.50;;
22814;SDS011;11574;51.058;13.712;2022-12-24T07:09:17;11.00;;;1.50;;
22814;SDS011;11574;51.058;13.712;2022-12-24T07:14:19;11.77;;;1.97;;
22814;SDS011;11574;51.058;13.712;2022-12-24T07:19:23;6.20;;;1.40;;
22814;SDS011;11574;51.058;13.712;2022-12-24T07:24:25;10.87;;;2.10;;
22814;SDS011;11574;51.058;13.712;2022-12-24T07:29:27;13.87;;;2.30;;
22814;SDS011;11574;51.058;13.712;2022-12-24T07:34:31;8.67;;;1.40;;
22814;SDS011;11574;51.058;13.712;2022-12-24T07:39:33;9.63;;;1.90;;
22814;SDS011;11574;51.058;13.712;2022-12-24T07:44:35;9.13;;;1.60;;
22814;SDS011;11574;51.058;13.712;2022-12-24T07:49:38;12.30;;;1.60;;
22814;SDS011;11574;51.058;13.712;2022-12-24T07:54:41;12.77;;;1.90;;
22814;SDS011;11574;51.058;13.712;2022-12-24T07:59:43;10.23;;;1.93;;
22814;SDS011;11574;51.058;13.712;2022-12-24T08:04:46;11.10;;;1.97;;
22814;SDS011;11574;51.058;13.712;2022-12-24T08:09:48;8.33;;;1.23;;
22814;SDS011;11574;51.058;13.712;2022-12-24T08:14:50;9.33;;;1.53;;
22814;SDS011;11574;51.058;13.712;2022-12-24T08:19:54;8.60;;;1.67;;
22814;SDS011;11574;51.058;13.712;2022-12-24T08:24:56;5.37;;;1.37;;
22814;SDS011;11574;51.058;13.712;2022-12-24T08:29:58;6.70;;;1.40;;
22814;SDS011;11574;51.058;13.712;2022-12-24T08:35:02;7.50;;;2.03;;
22814;SDS011;11574;51.058;13.712;2022-12-24T08:40:04;7.83;;;1.47;;
22814;SDS011;11574;51.058;13.712;2022-12-24T08:45:07;8.63;;;1.80;;
22814;SDS011;11574;51.058;13.712;2022-12-24T08:50:12;9.80;;;1.80;;
22814;SDS011;11574;51.058;13.712;2022-12-24T08:55:14;8.63;;;1.90;;
22814;SDS011;11574;51.058;13.712;2022-12-24T09:00:16;9.17;;;1.67;;
22814;SDS011;11574;51.058;13.712;2022-12-24T09:05:20;9.67;;;2.03;;
22814;SDS011;11574;51.058;13.712;2022-12-24T09:10:22;8.33;;;2.30;;
22814;SDS011;11574;51.058;13.712;2022-12-24T09:15:25;10.27;;;2.10;;
22814;SDS011;11574;51.058;13.712;2022-12-24T09:20:28;7.73;;;2.13;;
22814;SDS011;11574;51.058;13.712;2022-12-24T09:25:31;9.33;;;1.83;;
22814;SDS011;11574;51.058;13.712;2022-12-24T09:30:33;13.47;;;2.20;;
22814;SDS011;11574;51.058;13.712;2022-12-24T09:35:37;7.50;;;1.60;;
22814;SDS011;11574;51.058;13.712;2022-12-24T09:40:40;9.90;;;2.03;;
22814;SDS011;11574;51.058;13.712;2022-12-24T09:45:44;10.43;;;1.83;;
22814;SDS011;11574;51.058;13.712;2022-12-24T09:50:50;6.90;;;1.83;;
22814;SDS011;11574;51.058;13.712;2022-12-24T09:55:55;9.27;;;2.23;;
22814;SDS011;11574;51.058;13.712;2022-12-24T10:00:59;9.70;;;2.10;;
22814;SDS011;11574;51.058;13.712;2022-12-24T10:06:05;9.20;;;1.87;;
22814;SDS011;11574;51.058;13.712;2022-12-24T10:11:10;11.57;;;2.47;;
22814;SDS011;11574;51.058;13.712;2022-12-24T10:16:15;7.13;;;2.07;;
22814;SDS011;11574;51.058;13.712;2022-12-24T10:21:23;8.67;;;2.17;;
22814;SDS011;11574;51.058;13.712;2022-12-24T10:26:29;18.60;;;2.97;;
22814;SDS011;11574;51.058;13.712;2022-12-24T10:31:34;12.73;;;2.43;;
22814;SDS011;11574;51.058;13.712;2022-12-24T10:36:38;12.17;;;2.30;;
22814;SDS011;11574;51.058;13.712;2022-12-24T10:41:40;6.80;;;1.90;;
22814;SDS011;11574;51.058;13.712;2022-12-24T10:46:42;6.63;;;2.23;;
22814;SDS011;11574;51.058;13.712;2022-12-24T10:51:48;13.17;;;2.43;;
22814;SDS011;11574;51.058;13.712;2022-12-24T10:56:54;9.57;;;2.40;;
22814;SDS011;11574;51.058;13.712;2022-12-24T11:01:57;7.10;;;2.50;;
22814;SDS011;11574;51.058;13.712;2022-12-24T11:07:03;9.27;;;2.00;;
22814;SDS011;11574;51.058;13.712;2022-12-24T11:12:12;7.03;;;1.93;;
22814;SDS011;11574;51.058;13.712;2022-12-24T11:17:18;7.80;;;2.10;;
22814;SDS011;11574;51.058;13.712;2022-12-24T11:22:23;12.63;;;2.77;;
22814;SDS011;11574;51.058;13.712;2022-12-24T11:27:30;7.63;;;2.00;;
22814;SDS011;11574;51.058;13.712;2022-12-24T11:32:32;7.07;;;1.83;;
22814;SDS011;11574;51.058;13.712;2022-12-24T11:37:36;13.70;;;2.60;;
22814;SDS011;11574;51.058;13.712;2022-12-24T11:42:38;7.10;;;1.47;;
22814;SDS011;11574;51.058;13.712;2022-12-24T11:47:40;4.30;;;1.10;;
22814;SDS011;11574;51.058;13.712;2022-12-24T11:52:44;7.60;;;1.57;;
22814;SDS011;11574;51.058;13.712;2022-12-24T11:57:52;7.30;;;1.50;;
22814;SDS011;11574;51.058;13.712;2022-12-24T12:02:57;10.47;;;1.93;;
22814;SDS011;11574;51.058;13.712;2022-12-24T12:08:04;9.00;;;1.77;;
22814;SDS011;11574;51.058;13.712;2022-12-24T12:13:10;7.13;;;1.20;;
22814;SDS011;11574;51.058;13.712;2022-12-24T12:18:14;8.13;;;1.67;;
22814;SDS011;11574;51.058;13.712;2022-12-24T12:23:19;7.23;;;1.80;;
22814;SDS011;11574;51.058;13.712;2022-12-24T12:28:25;8.37;;;1.63;;
22814;SDS011;11574;51.058;13.712;2022-12-24T12:33:30;10.50;;;2.33;;
22814;SDS011;11574;51.058;13.712;2022-12-24T12:38:35;4.83;;;1.57;;
22814;SDS011;11574;51.058;13.712;2022-12-24T12:43:52;6.50;;;1.30;;
22814;SDS011;11574;51.058;13.712;2022-12-24T12:49:01;7.77;;;1.63;;
22814;SDS011;11574;51.058;13.712;2022-12-24T12:54:31;6.53;;;1.43;;
22814;SDS011;11574;51.058;13.712;2022-12-24T12:59:35;5.93;;;1.30;;
22814;SDS011;11574;51.058;13.712;2022-12-24T13:10:02;4.67;;;1.60;;
22814;SDS011;11574;51.058;13.712;2022-12-24T13:15:27;7.10;;;1.63;;
22814;SDS011;11574;51.058;13.712;2022-12-24T13:20:35;5.50;;;1.50;;
22814;SDS011;11574;51.058;13.712;2022-12-24T13:25:41;3.97;;;1.70;;
22814;SDS011;11574;51.058;13.712;2022-12-24T13:30:43;6.07;;;1.40;;
22814;SDS011;11574;51.058;13.712;2022-12-24T13:35:58;5.80;;;1.80;;
22814;SDS011;11574;51.058;13.712;2022-12-24T13:51:36;4.33;;;1.30;;
22814;SDS011;11574;51.058;13.712;2022-12-24T13:56:38;10.73;;;1.90;;
22814;SDS011;11574;51.058;13.712;2022-12-24T14:01:42;6.57;;;1.60;;
22814;SDS011;11574;51.058;13.712;2022-12-24T14:06:47;7.13;;;1.77;;
22814;SDS011;11574;51.058;13.712;2022-12-24T14:17:13;11.43;;;2.27;;
22814;SDS011;11574;51.058;13.712;2022-12-24T14:22:27;5.37;;;1.27;;
22814;SDS011;11574;51.058;13.712;2022-12-24T14:27:31;6.47;;;1.60;;
22814;SDS011;11574;51.058;13.712;2022-12-24T14:32:34;4.63;;;1.27;;
22814;SDS011;11574;51.058;13.712;2022-12-24T14:37:39;6.90;;;1.50;;
22814;SDS011;11574;51.058;13.712;2022-12-24T14:42:45;4.13;;;1.30;;
22814;SDS011;11574;51.058;13.712;2022-12-24T14:47:51;8.43;;;1.57;;
22814;SDS011;11574;51.058;13.712;2022-12-24T14:52:59;6.00;;;1.40;;
22814;SDS011;11574;51.058;13.712;2022-12-24T14:58:15;7.90;;;1.30;;
22814;SDS011;11574;51.058;13.712;2022-12-24T15:03:20;6.30;;;1.20;;
22814;SDS011;11574;51.058;13.712;2022-12-24T15:08:26;5.03;;;1.20;;
22814;SDS011;11574;51.058;13.712;2022-12-24T15:13:31;6.10;;;1.60;;
22814;SDS011;11574;51.058;13.712;2022-12-24T15:18:35;4.83;;;1.37;;
22814;SDS011;11574;51.058;13.712;2022-12-24T15:23:43;6.63;;;1.70;;
22814;SDS011;11574;51.058;13.712;2022-12-24T15:28:46;4.03;;;1.70;;
22814;SDS011;11574;51.058;13.712;2022-12-24T15:33:48;6.30;;;1.60;;
22814;SDS011;11574;51.058;13.712;2022-12-24T15:38:52;5.53;;;1.57;;
22814;SDS011;11574;51.058;13.712;2022-12-24T15:43:58;5.07;;;2.20;;
22814;SDS011;11574;51.058;13.712;2022-12-24T15:49:01;8.87;;;3.10;;
22814;SDS011;11574;51.058;13.712;2022-12-24T15:54:05;11.27;;;2.77;;
22814;SDS011;11574;51.058;13.712;2022-12-24T15:59:12;7.53;;;2.37;;
22814;SDS011;11574;51.058;13.712;2022-12-24T16:04:15;7.37;;;1.63;;
22814;SDS011;11574;51.058;13.712;2022-12-24T16:09:30;9.03;;;1.67;;
22814;SDS011;11574;51.058;13.712;2022-12-24T16:14:32;7.67;;;1.50;;
22814;SDS011;11574;51.058;13.712;2022-12-24T16:19:34;4.10;;;1.57;;
22814;SDS011;11574;51.058;13.712;2022-12-24T16:24:39;4.37;;;1.43;;
22814;SDS011;11574;51.058;13.712;2022-12-24T16:29:41;3.73;;;1.70;;
22814;SDS011;11574;51.058;13.712;2022-12-24T16:34:45;4.70;;;1.67;;
22814;SDS011;11574;51.058;13.712;2022-12-24T16:39:51;3.37;;;1.40;;
22814;SDS011;11574;51.058;13.712;2022-12-24T16:44:53;6.57;;;2.27;;
22814;SDS011;11574;51.058;13.712;2022-12-24T16:49:55;4.87;;;1.93;;
22814;SDS011;11574;51.058;13.712;2022-12-24T16:54:59;9.63;;;3.47;;
22814;SDS011;11574;51.058;13.712;2022-12-24T17:00:03;5.63;;;2.43;;
22814;SDS011;11574;51.058;13.712;2022-12-24T17:05:05;7.17;;;2.30;;
22814;SDS011;11574;51.058;13.712;2022-12-24T17:10:09;6.17;;;2.50;;
22814;SDS011;11574;51.058;13.712;2022-12-24T17:15:12;3.80;;;2.07;;
22814;SDS011;11574;51.058;13.712;2022-12-24T17:20:14;5.60;;;2.43;;
22814;SDS011;11574;51.058;13.712;2022-12-24T17:25:18;6.07;;;2.37;;
22814;SDS011;11574;51.058;13.712;2022-12-24T17:30:20;9.63;;;3.07;;
22814;SDS011;11574;51.058;13.712;2022-12-24T17:35:22;3.97;;;2.27;;
22814;SDS011;11574;51.058;13.712;2022-12-24T17:40:26;8.60;;;2.90;;
22814;SDS011;11574;51.058;13.712;2022-12-24T17:45:28;7.13;;;3.33;;
22814;SDS011;11574;51.058;13.712;2022-12-24T17:50:30;13.53;;;6.83;;
22814;SDS011;11574;51.058;13.712;2022-12-24T17:55:34;9.47;;;4.13;;
22814;SDS011;11574;51.058;13.712;2022-12-24T18:00:40;7.53;;;2.90;;
22814;SDS011;11574;51.058;13.712;2022-12-24T18:05:43;5.80;;;2.50;;
22814;SDS011;11574;51.058;13.712;2022-12-24T18:10:46;9.43;;;2.83;;
22814;SDS011;11574;51.058;13.712;2022-12-24T18:15:49;4.20;;;2.40;;
22814;SDS011;11574;51.058;13.712;2022-12-24T18:20:52;6.27;;;2.93;;
22814;SDS011;11574;51.058;13.712;2022-12-24T18:25:59;5.57;;;2.63;;
22814;SDS011;11574;51.058;13.712;2022-12-24T18:31:02;7.27;;;3.10;;
22814;SDS011;11574;51.058;13.712;2022-12-24T18:36:05;7.13;;;3.13;;
22814;SDS011;11574;51.058;13.712;2022-12-24T18:41:10;6.50;;;3.00;;
22814;SDS011;11574;51.058;13.712;2022-12-24T18:46:13;8.90;;;2.73;;
22814;SDS011;11574;51.058;13.712;2022-12-24T18:51:15;11.33;;;3.40;;
22814;SDS011;11574;51.058;13.712;2022-12-24T18:56:20;9.47;;;3.17;;
22814;SDS011;11574;51.058;13.712;2022-12-24T19:01:23;6.87;;;3.40;;
22814;SDS011;11574;51.058;13.712;2022-12-24T19:06:26;12.83;;;3.87;;
22814;SDS011;11574;51.058;13.712;2022-12-24T19:11:30;7.70;;;3.17;;
22814;SDS011;11574;51.058;13.712;2022-12-24T19:16:34;9.17;;;3.07;;
22814;SDS011;11574;51.058;13.712;2022-12-24T19:21:37;9.20;;;3.40;;
22814;SDS011;11574;51.058;13.712;2022-12-24T19:26:40;8.53;;;3.37;;
22814;SDS011;11574;51.058;13.712;2022-12-24T19:31:42;5.03;;;2.40;;
22814;SDS011;11574;51.058;13.712;2022-12-24T19:36:46;7.77;;;3.20;;
22814;SDS011;11574;51.058;13.712;2022-12-24T19:41:50;12.13;;;3.80;;
22814;SDS011;11574;51.058;13.712;2022-12-24T19:46:54;10.83;;;3.07;;
22814;SDS011;11574;51.058;13.712;2022-12-24T19:51:56;7.43;;;2.60;;
22814;SDS011;11574;51.058;13.712;2022-12-24T19:57:00;8.80;;;2.33;;
22814;SDS011;11574;51.058;13.712;2022-12-24T20:02:02;6.67;;;3.10;;
22814;SDS011;11574;51.058;13.712;2022-12-24T20:07:04;10.47;;;2.60;;
22814;SDS011;11574;51.058;13.712;2022-12-24T20:12:08;10.50;;;2.77;;
22814;SDS011;11574;51.058;13.712;2022-12-24T20:17:10;9.37;;;2.50;;
22814;SDS011;11574;51.058;13.712;2022-12-24T20:22:13;12.43;;;3.07;;
22814;SDS011;11574;51.058;13.712;2022-12-24T20:27:17;11.30;;;4.40;;
22814;SDS011;11574;51.058;13.712;2022-12-24T20:32:19;9.73;;;3.60;;
22814;SDS011;11574;51.058;13.712;2022-12-24T20:37:22;8.13;;;3.47;;
22814;SDS011;11574;51.058;13.712;2022-12-24T20:42:25;11.80;;;3.10;;
22814;SDS011;11574;51.058;13.712;2022-12-24T20:47:28;6.67;;;3.00;;
22814;SDS011;11574;51.058;13.712;2022-12-24T20:52:30;10.73;;;2.77;;
22814;SDS011;11574;51.058;13.712;2022-12-24T20:57:35;14.20;;;3.43;;
22814;SDS011;11574;51.058;13.712;2022-12-24T21:02:39;9.80;;;2.90;;
22814;SDS011;11574;51.058;13.712;2022-12-24T21:07:41;9.63;;;2.93;;
22814;SDS011;11574;51.058;13.712;2022-12-24T21:12:45;9.83;;;2.40;;
22814;SDS011;11574;51.058;13.712;2022-12-24T21:17:55;8.07;;;2.87;;
22814;SDS011;11574;51.058;13.712;2022-12-24T21:22:58;10.17;;;2.33;;
22814;SDS011;11574;51.058;13.712;2022-12-24T21:28:02;7.57;;;2.17;;
22814;SDS011;11574;51.058;13.712;2022-12-24T21:33:04;10.53;;;2.63;;
22814;SDS011;11574;51.058;13.712;2022-12-24T21:38:06;10.47;;;2.80;;
22814;SDS011;11574;51.058;13.712;2022-12-24T21:43:10;5.57;;;2.63;;
22814;SDS011;11574;51.058;13.712;2022-12-24T21:48:12;6.57;;;2.33;;
22814;SDS011;11574;51.058;13.712;2022-12-24T21:53:28;9.40;;;3.00;;
22814;SDS011;11574;51.058;13.712;2022-12-24T21:58:49;6.37;;;2.30;;
22814;SDS011;11574;51.058;13.712;2022-12-24T22:03:52;13.03;;;3.03;;
22814;SDS011;11574;51.058;13.712;2022-12-24T22:08:55;9.53;;;3.03;;
22814;SDS011;11574;51.058;13.712;2022-12-24T22:14:17;9.57;;;3.07;;
22814;SDS011;11574;51.058;13.712;2022-12-24T22:19:20;16.13;;;3.30;;
22814;SDS011;11574;51.058;13.712;2022-12-24T22:24:22;12.23;;;3.17;;
22814;SDS011;11574;51.058;13.712;2022-12-24T22:29:26;9.67;;;2.63;;
22814;SDS011;11574;51.058;13.712;2022-12-24T22:34:28;9.97;;;2.57;;
22814;SDS011;11574;51.058;13.712;2022-12-24T22:39:31;9.07;;;2.40;;
22814;SDS011;11574;51.058;13.712;2022-12-24T22:44:35;13.43;;;3.60;;
22814;SDS011;11574;51.058;13.712;2022-12-24T22:49:37;9.60;;;2.53;;
22814;SDS011;11574;51.058;13.712;2022-12-24T22:54:39;12.70;;;3.07;;
22814;SDS011;11574;51.058;13.712;2022-12-24T22:59:43;11.27;;;2.87;;
22814;SDS011;11574;51.058;13.712;2022-12-24T23:04:46;15.13;;;3.70;;
22814;SDS011;11574;51.058;13.712;2022-12-24T23:09:48;8.00;;;2.83;;
22814;SDS011;11574;51.058;13.712;2022-12-24T23:14:51;9.63;;;3.13;;
22814;SDS011;11574;51.058;13.712;2022-12-24T23:19:57;7.30;;;3.00;;
22814;SDS011;11574;51.058;13.712;2022-12-24T23:24:59;9.27;;;2.50;;
22814;SDS011;11574;51.058;13.712;2022-12-24T23:30:04;9.73;;;2.93;;
22814;SDS011;11574;51.058;13.712;2022-12-24T23:35:07;9.90;;;3.67;;
22814;SDS011;11574;51.058;13.712;2022-12-24T23:40:09;10.33;;;2.80;;
22814;SDS011;11574;51.058;13.712;2022-12-24T23:45:13;9.37;;;2.73;;
22814;SDS011;11574;51.058;13.712;2022-12-24T23:50:15;13.40;;;3.43;;
22814;SDS011;11574;51.058;13.712;2022-12-24T23:55:17;11.80;;;2.93;;
